sensor_id;sensor_type;location;lat;lon;timestamp;temperature;humidity
12981;DHT22;6555;50.468;8.480;2024-01-25T00:01:53;10.40;53.40
12981;DHT22;6555;50.468;8.480;2024-01-25T00:06:57;10.40;53.40
12981;DHT22;6555;50.468;8.480;2024-01-25T00:12:02;10.40;53.60
12981;DHT22;6555;50.468;8.480;2024-01-25T00:17:06;10.40;53.70
12981;DHT22;6555;50.468;8.480;2024-01-25T00:22:10;10.40;53.70
12981;DHT22;6555;50.468;8.480;2024-01-25T00:27:15;10.40;53.70
12981;DHT22;6555;50.468;8.480;2024-01-25T00:32:18;10.40;53.80
12981;DHT22;6555;50.468;8.480;2024-01-25T00:37:22;10.40;53.70
12981;DHT22;6555;50.468;8.480;2024-01-25T00:42:28;10.50;53.90
12981;DHT22;6555;50.468;8.480;2024-01-25T00:47:34;10.40;54.00
12981;DHT22;6555;50.468;8.480;2024-01-25T00:52:37;10.40;54.00
12981;DHT22;6555;50.468;8.480;2024-01-25T00:57:42;10.50;54.10
12981;DHT22;6555;50.468;8.480;2024-01-25T01:02:46;10.50;54.20
12981;DHT22;6555;50.468;8.480;2024-01-25T01:07:52;10.50;54.20
12981;DHT22;6555;50.468;8.480;2024-01-25T01:12:57;10.50;54.20
12981;DHT22;6555;50.468;8.480;2024-01-25T01:18:00;10.50;54.30
12981;DHT22;6555;50.468;8.480;2024-01-25T01:23:04;10.50;54.40
12981;DHT22;6555;50.468;8.480;2024-01-25T01:28:09;10.50;54.30
12981;DHT22;6555;50.468;8.480;2024-01-25T01:33:12;10.50;54.40
12981;DHT22;6555;50.468;8.480;2024-01-25T01:38:16;10.50;54.30
12981;DHT22;6555;50.468;8.480;2024-01-25T01:43:21;10.50;54.40
12981;DHT22;6555;50.468;8.480;2024-01-25T01:48:25;10.40;54.30
12981;DHT22;6555;50.468;8.480;2024-01-25T01:53:29;10.40;54.30
12981;DHT22;6555;50.468;8.480;2024-01-25T01:58:35;10.40;54.40
12981;DHT22;6555;50.468;8.480;2024-01-25T02:03:38;10.40;54.50
12981;DHT22;6555;50.468;8.480;2024-01-25T02:08:42;10.40;54.60
12981;DHT22;6555;50.468;8.480;2024-01-25T02:13:47;10.30;54.60
12981;DHT22;6555;50.468;8.480;2024-01-25T02:18:52;10.40;54.70
12981;DHT22;6555;50.468;8.480;2024-01-25T02:23:58;10.40;54.70
12981;DHT22;6555;50.468;8.480;2024-01-25T02:29:01;10.40;54.70
12981;DHT22;6555;50.468;8.480;2024-01-25T02:34:06;10.30;54.80
12981;DHT22;6555;50.468;8.480;2024-01-25T02:39:11;10.40;54.70
12981;DHT22;6555;50.468;8.480;2024-01-25T02:44:15;10.40;54.90
12981;DHT22;6555;50.468;8.480;2024-01-25T02:49:18;10.40;54.70
12981;DHT22;6555;50.468;8.480;2024-01-25T02:54:23;10.30;54.60
12981;DHT22;6555;50.468;8.480;2024-01-25T02:59:26;10.30;54.70
12981;DHT22;6555;50.468;8.480;2024-01-25T03:04:30;10.30;54.80
12981;DHT22;6555;50.468;8.480;2024-01-25T03:09:34;10.30;54.80
12981;DHT22;6555;50.468;8.480;2024-01-25T03:14:38;10.20;54.70
12981;DHT22;6555;50.468;8.480;2024-01-25T03:19:41;10.20;54.70
12981;DHT22;6555;50.468;8.480;2024-01-25T03:24:46;10.20;54.70
12981;DHT22;6555;50.468;8.480;2024-01-25T03:29:50;10.20;55.40
12981;DHT22;6555;50.468;8.480;2024-01-25T03:34:53;10.10;54.60
12981;DHT22;6555;50.468;8.480;2024-01-25T03:39:58;10.10;54.60
12981;DHT22;6555;50.468;8.480;2024-01-25T03:45:01;10.00;54.50
12981;DHT22;6555;50.468;8.480;2024-01-25T03:50:05;10.00;54.40
12981;DHT22;6555;50.468;8.480;2024-01-25T03:55:10;10.00;54.40
12981;DHT22;6555;50.468;8.480;2024-01-25T04:00:14;9.90;54.50
12981;DHT22;6555;50.468;8.480;2024-01-25T04:05:17;9.90;54.50
12981;DHT22;6555;50.468;8.480;2024-01-25T04:10:22;9.80;54.40
12981;DHT22;6555;50.468;8.480;2024-01-25T04:15:27;9.80;54.60
12981;DHT22;6555;50.468;8.480;2024-01-25T04:20:31;9.70;54.50
12981;DHT22;6555;50.468;8.480;2024-01-25T04:25:38;9.60;54.60
12981;DHT22;6555;50.468;8.480;2024-01-25T04:30:41;9.60;54.80
12981;DHT22;6555;50.468;8.480;2024-01-25T04:35:44;9.60;54.80
12981;DHT22;6555;50.468;8.480;2024-01-25T04:40:49;9.60;55.00
12981;DHT22;6555;50.468;8.480;2024-01-25T04:45:52;9.60;55.10
12981;DHT22;6555;50.468;8.480;2024-01-25T04:50:56;9.60;55.00
12981;DHT22;6555;50.468;8.480;2024-01-25T04:56:02;9.60;55.10
12981;DHT22;6555;50.468;8.480;2024-01-25T05:01:08;9.60;55.10
12981;DHT22;6555;50.468;8.480;2024-01-25T05:06:11;9.60;55.10
12981;DHT22;6555;50.468;8.480;2024-01-25T05:11:16;9.70;55.10
12981;DHT22;6555;50.468;8.480;2024-01-25T05:16:19;9.70;55.10
12981;DHT22;6555;50.468;8.480;2024-01-25T05:21:22;9.70;55.00
12981;DHT22;6555;50.468;8.480;2024-01-25T05:26:27;9.70;55.00
12981;DHT22;6555;50.468;8.480;2024-01-25T05:31:30;9.70;54.90
12981;DHT22;6555;50.468;8.480;2024-01-25T05:36:34;9.60;54.80
12981;DHT22;6555;50.468;8.480;2024-01-25T05:41:38;9.60;54.70
12981;DHT22;6555;50.468;8.480;2024-01-25T05:46:42;9.60;54.70
12981;DHT22;6555;50.468;8.480;2024-01-25T05:51:45;9.50;54.60
12981;DHT22;6555;50.468;8.480;2024-01-25T05:56:49;9.50;54.70
12981;DHT22;6555;50.468;8.480;2024-01-25T06:01:52;9.40;54.70
12981;DHT22;6555;50.468;8.480;2024-01-25T06:06:56;9.40;54.60
12981;DHT22;6555;50.468;8.480;2024-01-25T06:12:00;9.30;54.80
12981;DHT22;6555;50.468;8.480;2024-01-25T06:17:05;9.30;54.80
12981;DHT22;6555;50.468;8.480;2024-01-25T06:22:08;9.30;54.90
12981;DHT22;6555;50.468;8.480;2024-01-25T06:27:15;9.30;54.80
12981;DHT22;6555;50.468;8.480;2024-01-25T06:32:18;9.20;54.70
12981;DHT22;6555;50.468;8.480;2024-01-25T06:37:27;9.20;54.70
12981;DHT22;6555;50.468;8.480;2024-01-25T06:42:32;9.20;54.90
12981;DHT22;6555;50.468;8.480;2024-01-25T06:47:35;9.20;55.90
12981;DHT22;6555;50.468;8.480;2024-01-25T06:52:39;9.20;54.90
12981;DHT22;6555;50.468;8.480;2024-01-25T06:57:43;9.20;54.80
12981;DHT22;6555;50.468;8.480;2024-01-25T07:02:49;9.20;54.90
12981;DHT22;6555;50.468;8.480;2024-01-25T07:07:52;9.10;54.90
12981;DHT22;6555;50.468;8.480;2024-01-25T07:12:57;9.10;54.90
12981;DHT22;6555;50.468;8.480;2024-01-25T07:18:00;9.00;54.90
12981;DHT22;6555;50.468;8.480;2024-01-25T07:23:04;9.00;55.00
12981;DHT22;6555;50.468;8.480;2024-01-25T07:28:08;8.90;55.10
12981;DHT22;6555;50.468;8.480;2024-01-25T07:33:11;8.90;55.20
12981;DHT22;6555;50.468;8.480;2024-01-25T07:38:15;8.90;55.20
12981;DHT22;6555;50.468;8.480;2024-01-25T07:43:19;8.80;55.20
12981;DHT22;6555;50.468;8.480;2024-01-25T07:48:23;8.80;55.30
12981;DHT22;6555;50.468;8.480;2024-01-25T07:53:28;8.80;55.20
12981;DHT22;6555;50.468;8.480;2024-01-25T07:58:32;8.80;55.20
12981;DHT22;6555;50.468;8.480;2024-01-25T08:03:37;8.70;55.20
12981;DHT22;6555;50.468;8.480;2024-01-25T08:08:40;8.80;55.40
12981;DHT22;6555;50.468;8.480;2024-01-25T08:13:45;8.80;55.40
12981;DHT22;6555;50.468;8.480;2024-01-25T08:18:49;8.80;55.50
12981;DHT22;6555;50.468;8.480;2024-01-25T08:23:52;8.80;55.60
12981;DHT22;6555;50.468;8.480;2024-01-25T08:28:57;8.80;55.60
12981;DHT22;6555;50.468;8.480;2024-01-25T08:34:00;8.90;56.50
12981;DHT22;6555;50.468;8.480;2024-01-25T08:39:04;8.90;55.90
12981;DHT22;6555;50.468;8.480;2024-01-25T08:44:08;9.00;55.90
12981;DHT22;6555;50.468;8.480;2024-01-25T08:49:12;9.10;56.10
12981;DHT22;6555;50.468;8.480;2024-01-25T08:54:15;9.10;56.10
12981;DHT22;6555;50.468;8.480;2024-01-25T08:59:20;9.20;56.10
12981;DHT22;6555;50.468;8.480;2024-01-25T09:04:23;9.30;56.20
12981;DHT22;6555;50.468;8.480;2024-01-25T09:09:27;9.40;56.10
12981;DHT22;6555;50.468;8.480;2024-01-25T09:14:32;9.50;56.10
12981;DHT22;6555;50.468;8.480;2024-01-25T09:19:35;9.50;56.10
12981;DHT22;6555;50.468;8.480;2024-01-25T09:24:39;9.60;56.10
12981;DHT22;6555;50.468;8.480;2024-01-25T09:29:44;9.70;56.10
12981;DHT22;6555;50.468;8.480;2024-01-25T09:34:48;9.70;56.20
12981;DHT22;6555;50.468;8.480;2024-01-25T09:39:51;9.80;56.20
12981;DHT22;6555;50.468;8.480;2024-01-25T09:44:56;9.80;56.30
12981;DHT22;6555;50.468;8.480;2024-01-25T09:50:00;9.80;56.30
12981;DHT22;6555;50.468;8.480;2024-01-25T09:55:05;9.80;56.20
12981;DHT22;6555;50.468;8.480;2024-01-25T10:00:12;9.90;56.30
12981;DHT22;6555;50.468;8.480;2024-01-25T10:05:16;9.90;56.30
12981;DHT22;6555;50.468;8.480;2024-01-25T10:10:20;10.00;56.30
12981;DHT22;6555;50.468;8.480;2024-01-25T10:15:24;10.00;56.20
12981;DHT22;6555;50.468;8.480;2024-01-25T10:20:31;10.00;56.20
12981;DHT22;6555;50.468;8.480;2024-01-25T10:25:35;10.10;56.20
12981;DHT22;6555;50.468;8.480;2024-01-25T10:30:40;10.10;56.20
12981;DHT22;6555;50.468;8.480;2024-01-25T10:35:45;10.20;56.10
12981;DHT22;6555;50.468;8.480;2024-01-25T10:40:52;10.20;56.10
12981;DHT22;6555;50.468;8.480;2024-01-25T10:45:58;10.20;56.20
12981;DHT22;6555;50.468;8.480;2024-01-25T10:51:06;10.30;56.20
12981;DHT22;6555;50.468;8.480;2024-01-25T10:56:09;10.30;56.20
12981;DHT22;6555;50.468;8.480;2024-01-25T11:01:17;10.40;56.30
12981;DHT22;6555;50.468;8.480;2024-01-25T11:06:21;10.40;56.50
12981;DHT22;6555;50.468;8.480;2024-01-25T11:11:25;10.50;56.60
12981;DHT22;6555;50.468;8.480;2024-01-25T11:16:32;10.60;56.50
12981;DHT22;6555;50.468;8.480;2024-01-25T11:21:41;10.70;56.60
12981;DHT22;6555;50.468;8.480;2024-01-25T11:26:46;10.70;56.70
12981;DHT22;6555;50.468;8.480;2024-01-25T11:31:51;10.80;56.60
12981;DHT22;6555;50.468;8.480;2024-01-25T11:36:55;10.90;56.30
12981;DHT22;6555;50.468;8.480;2024-01-25T11:41:59;11.00;56.20
12981;DHT22;6555;50.468;8.480;2024-01-25T11:47:05;11.00;56.10
12981;DHT22;6555;50.468;8.480;2024-01-25T11:52:09;11.00;56.10
12981;DHT22;6555;50.468;8.480;2024-01-25T11:57:13;11.00;56.10
12981;DHT22;6555;50.468;8.480;2024-01-25T12:02:18;11.10;56.10
12981;DHT22;6555;50.468;8.480;2024-01-25T12:07:21;11.10;56.00
12981;DHT22;6555;50.468;8.480;2024-01-25T12:12:26;11.20;56.00
12981;DHT22;6555;50.468;8.480;2024-01-25T12:17:33;11.20;55.90
12981;DHT22;6555;50.468;8.480;2024-01-25T12:22:39;11.20;55.80
12981;DHT22;6555;50.468;8.480;2024-01-25T12:27:43;11.20;55.70
12981;DHT22;6555;50.468;8.480;2024-01-25T12:32:52;11.30;55.70
12981;DHT22;6555;50.468;8.480;2024-01-25T12:37:56;11.30;55.60
12981;DHT22;6555;50.468;8.480;2024-01-25T12:43:03;11.30;55.50
12981;DHT22;6555;50.468;8.480;2024-01-25T12:48:09;11.30;55.40
12981;DHT22;6555;50.468;8.480;2024-01-25T12:53:12;11.30;55.40
12981;DHT22;6555;50.468;8.480;2024-01-25T12:58:16;11.30;55.40
12981;DHT22;6555;50.468;8.480;2024-01-25T13:03:21;11.30;55.20
12981;DHT22;6555;50.468;8.480;2024-01-25T13:08:25;11.40;55.20
12981;DHT22;6555;50.468;8.480;2024-01-25T13:13:28;11.40;55.00
12981;DHT22;6555;50.468;8.480;2024-01-25T13:18:33;11.40;54.90
12981;DHT22;6555;50.468;8.480;2024-01-25T13:23:36;11.40;55.50
12981;DHT22;6555;50.468;8.480;2024-01-25T13:28:40;11.40;54.90
12981;DHT22;6555;50.468;8.480;2024-01-25T13:33:45;11.40;54.90
12981;DHT22;6555;50.468;8.480;2024-01-25T13:38:49;11.40;54.80
12981;DHT22;6555;50.468;8.480;2024-01-25T13:43:53;11.40;55.60
12981;DHT22;6555;50.468;8.480;2024-01-25T13:48:58;11.40;54.90
12981;DHT22;6555;50.468;8.480;2024-01-25T13:54:02;11.40;54.90
12981;DHT22;6555;50.468;8.480;2024-01-25T13:59:06;11.40;55.50
12981;DHT22;6555;50.468;8.480;2024-01-25T14:04:11;11.40;54.70
12981;DHT22;6555;50.468;8.480;2024-01-25T14:09:16;11.40;54.70
12981;DHT22;6555;50.468;8.480;2024-01-25T14:14:20;11.40;54.70
12981;DHT22;6555;50.468;8.480;2024-01-25T14:19:24;11.40;54.60
12981;DHT22;6555;50.468;8.480;2024-01-25T14:24:28;11.40;54.70
12981;DHT22;6555;50.468;8.480;2024-01-25T14:29:32;11.40;54.70
12981;DHT22;6555;50.468;8.480;2024-01-25T14:34:37;11.50;54.90
12981;DHT22;6555;50.468;8.480;2024-01-25T14:39:42;11.50;54.80
12981;DHT22;6555;50.468;8.480;2024-01-25T14:45:06;11.60;54.90
12981;DHT22;6555;50.468;8.480;2024-01-25T14:50:11;11.70;54.90
12981;DHT22;6555;50.468;8.480;2024-01-25T14:55:14;11.70;54.80
12981;DHT22;6555;50.468;8.480;2024-01-25T15:00:19;11.80;54.80
12981;DHT22;6555;50.468;8.480;2024-01-25T15:05:24;11.80;54.70
12981;DHT22;6555;50.468;8.480;2024-01-25T15:10:27;11.90;54.60
12981;DHT22;6555;50.468;8.480;2024-01-25T15:15:33;11.90;54.60
12981;DHT22;6555;50.468;8.480;2024-01-25T15:20:38;11.90;54.50
12981;DHT22;6555;50.468;8.480;2024-01-25T15:25:41;11.90;54.40
12981;DHT22;6555;50.468;8.480;2024-01-25T15:30:45;11.90;54.40
12981;DHT22;6555;50.468;8.480;2024-01-25T15:35:49;11.90;54.40
12981;DHT22;6555;50.468;8.480;2024-01-25T15:40:53;11.80;54.30
12981;DHT22;6555;50.468;8.480;2024-01-25T15:45:56;11.80;54.30
12981;DHT22;6555;50.468;8.480;2024-01-25T15:51:01;11.70;54.40
12981;DHT22;6555;50.468;8.480;2024-01-25T15:56:05;11.70;54.30
12981;DHT22;6555;50.468;8.480;2024-01-25T16:01:09;11.60;54.10
12981;DHT22;6555;50.468;8.480;2024-01-25T16:06:13;11.50;54.10
12981;DHT22;6555;50.468;8.480;2024-01-25T16:11:17;11.50;54.10
12981;DHT22;6555;50.468;8.480;2024-01-25T16:16:20;11.40;54.00
12981;DHT22;6555;50.468;8.480;2024-01-25T16:21:25;11.30;54.00
12981;DHT22;6555;50.468;8.480;2024-01-25T16:26:28;11.20;53.90
12981;DHT22;6555;50.468;8.480;2024-01-25T16:31:33;11.10;54.00
12981;DHT22;6555;50.468;8.480;2024-01-25T16:36:38;11.10;54.10
12981;DHT22;6555;50.468;8.480;2024-01-25T16:41:41;11.00;54.00
12981;DHT22;6555;50.468;8.480;2024-01-25T16:46:45;10.90;54.00
12981;DHT22;6555;50.468;8.480;2024-01-25T16:51:49;10.80;54.00
12981;DHT22;6555;50.468;8.480;2024-01-25T16:56:53;10.70;54.00
12981;DHT22;6555;50.468;8.480;2024-01-25T17:01:56;10.70;54.00
12981;DHT22;6555;50.468;8.480;2024-01-25T17:07:00;10.50;54.00
12981;DHT22;6555;50.468;8.480;2024-01-25T17:12:04;10.50;54.10
12981;DHT22;6555;50.468;8.480;2024-01-25T17:17:08;10.40;54.20
12981;DHT22;6555;50.468;8.480;2024-01-25T17:22:13;10.40;54.30
12981;DHT22;6555;50.468;8.480;2024-01-25T17:27:16;10.40;54.30
12981;DHT22;6555;50.468;8.480;2024-01-25T17:32:20;10.30;54.20
12981;DHT22;6555;50.468;8.480;2024-01-25T17:37:24;10.20;54.20
12981;DHT22;6555;50.468;8.480;2024-01-25T17:42:28;10.20;54.30
12981;DHT22;6555;50.468;8.480;2024-01-25T17:47:31;10.20;54.40
12981;DHT22;6555;50.468;8.480;2024-01-25T17:52:35;10.20;54.50
12981;DHT22;6555;50.468;8.480;2024-01-25T17:57:39;10.20;54.60
12981;DHT22;6555;50.468;8.480;2024-01-25T18:02:42;10.10;54.60
12981;DHT22;6555;50.468;8.480;2024-01-25T18:07:47;10.20;54.60
12981;DHT22;6555;50.468;8.480;2024-01-25T18:12:50;10.20;54.70
12981;DHT22;6555;50.468;8.480;2024-01-25T18:17:53;10.20;54.70
12981;DHT22;6555;50.468;8.480;2024-01-25T18:22:58;10.20;54.60
12981;DHT22;6555;50.468;8.480;2024-01-25T18:28:01;10.20;54.60
12981;DHT22;6555;50.468;8.480;2024-01-25T18:33:04;10.20;54.50
12981;DHT22;6555;50.468;8.480;2024-01-25T18:38:09;10.10;54.70
12981;DHT22;6555;50.468;8.480;2024-01-25T18:43:12;10.10;54.70
12981;DHT22;6555;50.468;8.480;2024-01-25T18:48:17;10.20;54.70
12981;DHT22;6555;50.468;8.480;2024-01-25T18:53:23;10.10;54.70
12981;DHT22;6555;50.468;8.480;2024-01-25T18:58:26;10.10;54.70
12981;DHT22;6555;50.468;8.480;2024-01-25T19:03:30;10.10;54.90
12981;DHT22;6555;50.468;8.480;2024-01-25T19:08:36;10.10;54.90
12981;DHT22;6555;50.468;8.480;2024-01-25T19:13:39;10.20;55.00
12981;DHT22;6555;50.468;8.480;2024-01-25T19:18:43;10.20;55.10
12981;DHT22;6555;50.468;8.480;2024-01-25T19:23:48;10.20;55.10
12981;DHT22;6555;50.468;8.480;2024-01-25T19:28:52;10.20;55.20
12981;DHT22;6555;50.468;8.480;2024-01-25T19:33:55;10.30;55.20
12981;DHT22;6555;50.468;8.480;2024-01-25T19:39:00;10.30;55.20
12981;DHT22;6555;50.468;8.480;2024-01-25T19:44:04;10.30;55.20
12981;DHT22;6555;50.468;8.480;2024-01-25T19:49:08;10.30;55.20
12981;DHT22;6555;50.468;8.480;2024-01-25T19:54:13;10.30;55.30
12981;DHT22;6555;50.468;8.480;2024-01-25T19:59:19;10.30;55.30
12981;DHT22;6555;50.468;8.480;2024-01-25T20:04:24;10.30;55.30
12981;DHT22;6555;50.468;8.480;2024-01-25T20:09:29;10.30;55.30
12981;DHT22;6555;50.468;8.480;2024-01-25T20:14:33;10.30;55.30
12981;DHT22;6555;50.468;8.480;2024-01-25T20:19:36;10.30;55.30
12981;DHT22;6555;50.468;8.480;2024-01-25T20:24:41;10.30;55.40
12981;DHT22;6555;50.468;8.480;2024-01-25T20:29:44;10.30;55.50
12981;DHT22;6555;50.468;8.480;2024-01-25T20:34:48;10.30;55.50
12981;DHT22;6555;50.468;8.480;2024-01-25T20:39:57;10.30;55.50
12981;DHT22;6555;50.468;8.480;2024-01-25T20:45:00;10.30;55.60
12981;DHT22;6555;50.468;8.480;2024-01-25T20:50:04;10.30;55.60
12981;DHT22;6555;50.468;8.480;2024-01-25T20:55:15;10.40;55.60
12981;DHT22;6555;50.468;8.480;2024-01-25T21:00:19;10.40;55.70
12981;DHT22;6555;50.468;8.480;2024-01-25T21:05:23;10.40;55.80
12981;DHT22;6555;50.468;8.480;2024-01-25T21:10:29;10.40;55.70
12981;DHT22;6555;50.468;8.480;2024-01-25T21:15:32;10.40;55.80
12981;DHT22;6555;50.468;8.480;2024-01-25T21:20:36;10.40;55.70
12981;DHT22;6555;50.468;8.480;2024-01-25T21:25:41;10.40;55.80
12981;DHT22;6555;50.468;8.480;2024-01-25T21:30:45;10.40;56.70
12981;DHT22;6555;50.468;8.480;2024-01-25T21:35:48;10.40;56.00
12981;DHT22;6555;50.468;8.480;2024-01-25T21:40:53;10.40;56.20
12981;DHT22;6555;50.468;8.480;2024-01-25T21:45:56;10.50;57.00
12981;DHT22;6555;50.468;8.480;2024-01-25T21:51:00;10.50;56.30
12981;DHT22;6555;50.468;8.480;2024-01-25T21:56:06;10.50;56.30
12981;DHT22;6555;50.468;8.480;2024-01-25T22:01:10;10.60;56.60
12981;DHT22;6555;50.468;8.480;2024-01-25T22:06:14;10.60;56.60
12981;DHT22;6555;50.468;8.480;2024-01-25T22:11:19;10.60;56.70
12981;DHT22;6555;50.468;8.480;2024-01-25T22:16:23;10.70;56.90
12981;DHT22;6555;50.468;8.480;2024-01-25T22:21:26;10.70;56.90
12981;DHT22;6555;50.468;8.480;2024-01-25T22:26:34;10.80;57.00
12981;DHT22;6555;50.468;8.480;2024-01-25T22:31:38;10.80;57.10
12981;DHT22;6555;50.468;8.480;2024-01-25T22:36:42;10.90;57.10
12981;DHT22;6555;50.468;8.480;2024-01-25T22:41:47;10.90;57.10
12981;DHT22;6555;50.468;8.480;2024-01-25T22:46:51;11.00;57.20
12981;DHT22;6555;50.468;8.480;2024-01-25T22:52:06;11.00;57.10
12981;DHT22;6555;50.468;8.480;2024-01-25T22:57:11;11.10;57.20
12981;DHT22;6555;50.468;8.480;2024-01-25T23:02:15;11.10;57.20
12981;DHT22;6555;50.468;8.480;2024-01-25T23:07:18;11.10;57.30
12981;DHT22;6555;50.468;8.480;2024-01-25T23:12:24;11.10;57.20
12981;DHT22;6555;50.468;8.480;2024-01-25T23:17:28;11.20;57.40
12981;DHT22;6555;50.468;8.480;2024-01-25T23:22:32;11.20;57.30
12981;DHT22;6555;50.468;8.480;2024-01-25T23:27:37;11.20;58.00
12981;DHT22;6555;50.468;8.480;2024-01-25T23:32:40;11.20;57.40
12981;DHT22;6555;50.468;8.480;2024-01-25T23:37:44;11.30;57.50
12981;DHT22;6555;50.468;8.480;2024-01-25T23:42:49;11.30;57.60
12981;DHT22;6555;50.468;8.480;2024-01-25T23:47:53;11.30;57.60
12981;DHT22;6555;50.468;8.480;2024-01-25T23:52:57;11.30;57.60
12981;DHT22;6555;50.468;8.480;2024-01-25T23:58:02;11.40;57.60
